sensor_id;sensor_type;location;lat;lon;timestamp;pressure;altitude;pressure_sealevel;temperature;humidity
55994;BME280;67425;52.126;20.638;2024-02-21T00:02:23;57809.19;;;-144.78;66.48
55994;BME280;67425;52.126;20.638;2024-02-21T00:04:49;57800.88;;;-144.78;67.54
55994;BME280;67425;52.126;20.638;2024-02-21T00:07:14;57800.88;;;-144.78;66.17
55994;BME280;67425;52.126;20.638;2024-02-21T00:09:39;57794.63;;;-144.78;66.50
55994;BME280;67425;52.126;20.638;2024-02-21T00:12:04;57805.03;;;-144.78;66.21
55994;BME280;67425;52.126;20.638;2024-02-21T00:14:30;57800.88;;;-144.78;66.82
55994;BME280;67425;52.126;20.638;2024-02-21T00:16:55;57798.78;;;-144.78;66.11
55994;BME280;67425;52.126;20.638;2024-02-21T00:19:21;57802.94;;;-144.78;65.71
55994;BME280;67425;52.126;20.638;2024-02-21T00:21:46;57788.41;;;-144.78;66.35
55994;BME280;67425;52.126;20.638;2024-02-21T00:24:11;57769.72;;;-144.78;66.46
55994;BME280;67425;52.126;20.638;2024-02-21T00:26:36;57832.03;;;-144.78;66.77
55994;BME280;67425;52.126;20.638;2024-02-21T00:29:01;57792.56;;;-144.78;66.38
55994;BME280;67425;52.126;20.638;2024-02-21T00:31:27;57790.47;;;-144.78;66.11
55994;BME280;67425;52.126;20.638;2024-02-21T00:33:52;57790.47;;;-144.78;67.07
55994;BME280;67425;52.126;20.638;2024-02-21T00:36:17;57767.63;;;-144.78;65.97
55994;BME280;67425;52.126;20.638;2024-02-21T00:38:42;57794.63;;;-144.78;67.18
55994;BME280;67425;52.126;20.638;2024-02-21T00:41:08;57788.41;;;-144.78;66.49
55994;BME280;67425;52.126;20.638;2024-02-21T00:43:33;57792.56;;;-144.78;68.38
55994;BME280;67425;52.126;20.638;2024-02-21T00:45:58;57811.25;;;-144.78;68.22
55994;BME280;67425;52.126;20.638;2024-02-21T00:48:23;57813.34;;;-144.78;68.34
55994;BME280;67425;52.126;20.638;2024-02-21T00:50:49;57811.25;;;-144.78;68.36
55994;BME280;67425;52.126;20.638;2024-02-21T00:53:14;57796.72;;;-144.78;67.38
55994;BME280;67425;52.126;20.638;2024-02-21T00:55:39;57792.56;;;-144.78;67.35
55994;BME280;67425;52.126;20.638;2024-02-21T00:58:05;57809.19;;;-144.78;67.49
55994;BME280;67425;52.126;20.638;2024-02-21T01:00:30;57848.63;;;-144.78;69.69
55994;BME280;67425;52.126;20.638;2024-02-21T01:02:55;57807.09;;;-144.78;69.38
55994;BME280;67425;52.126;20.638;2024-02-21T01:05:21;57771.78;;;-144.78;68.98
55994;BME280;67425;52.126;20.638;2024-02-21T01:07:47;57782.19;;;-144.78;68.31
55994;BME280;67425;52.126;20.638;2024-02-21T01:10:12;57798.78;;;-144.78;66.79
55994;BME280;67425;52.126;20.638;2024-02-21T01:12:38;57800.88;;;-144.78;67.66
55994;BME280;67425;52.126;20.638;2024-02-21T01:15:03;57798.78;;;-144.78;67.38
55994;BME280;67425;52.126;20.638;2024-02-21T01:17:29;57815.41;;;-144.78;67.30
55994;BME280;67425;52.126;20.638;2024-02-21T01:19:54;57805.03;;;-144.78;67.46
55994;BME280;67425;52.126;20.638;2024-02-21T01:22:19;57757.25;;;-144.78;67.08
55994;BME280;67425;52.126;20.638;2024-02-21T01:24:44;57802.94;;;-144.78;68.73
55994;BME280;67425;52.126;20.638;2024-02-21T01:27:10;57813.34;;;-144.78;67.83
55994;BME280;67425;52.126;20.638;2024-02-21T01:29:35;57790.47;;;-144.78;68.31
55994;BME280;67425;52.126;20.638;2024-02-21T01:32:00;57823.72;;;-144.78;68.11
55994;BME280;67425;52.126;20.638;2024-02-21T01:34:26;57805.03;;;-144.78;68.51
55994;BME280;67425;52.126;20.638;2024-02-21T01:36:51;57798.78;;;-144.78;68.88
55994;BME280;67425;52.126;20.638;2024-02-21T01:39:16;57832.03;;;-144.78;68.81
55994;BME280;67425;52.126;20.638;2024-02-21T01:41:42;57769.72;;;-144.78;68.82
55994;BME280;67425;52.126;20.638;2024-02-21T01:44:07;57771.78;;;-144.78;67.56
55994;BME280;67425;52.126;20.638;2024-02-21T01:46:33;57813.34;;;-144.78;68.71
55994;BME280;67425;52.126;20.638;2024-02-21T01:48:58;57790.47;;;-144.78;67.60
55994;BME280;67425;52.126;20.638;2024-02-21T01:51:24;57773.88;;;-144.78;67.15
55994;BME280;67425;52.126;20.638;2024-02-21T01:53:49;57823.72;;;-144.78;67.98
55994;BME280;67425;52.126;20.638;2024-02-21T01:56:15;57786.34;;;-144.78;68.85
55994;BME280;67425;52.126;20.638;2024-02-21T01:58:41;57819.56;;;-144.78;69.42
55994;BME280;67425;52.126;20.638;2024-02-21T02:01:07;57811.25;;;-144.78;68.77
55994;BME280;67425;52.126;20.638;2024-02-21T02:03:32;57775.94;;;-144.78;69.14
55994;BME280;67425;52.126;20.638;2024-02-21T02:05:58;57792.56;;;-144.78;68.09
55994;BME280;67425;52.126;20.638;2024-02-21T02:08:23;57763.47;;;-144.78;68.14
55994;BME280;67425;52.126;20.638;2024-02-21T02:10:48;57784.25;;;-144.78;69.35
55994;BME280;67425;52.126;20.638;2024-02-21T02:13:14;57794.63;;;-144.78;67.24
55994;BME280;67425;52.126;20.638;2024-02-21T02:18:08;57786.34;;;-144.78;68.03
55994;BME280;67425;52.126;20.638;2024-02-21T02:20:33;57832.03;;;-144.78;69.18
55994;BME280;67425;52.126;20.638;2024-02-21T02:22:59;57778.03;;;-144.78;67.95
55994;BME280;67425;52.126;20.638;2024-02-21T02:25:24;57771.78;;;-144.78;67.66
55994;BME280;67425;52.126;20.638;2024-02-21T02:27:50;57792.56;;;-144.78;68.13
55994;BME280;67425;52.126;20.638;2024-02-21T02:30:15;57819.56;;;-144.78;68.33
55994;BME280;67425;52.126;20.638;2024-02-21T02:32:44;57771.78;;;-144.78;69.16
55994;BME280;67425;52.126;20.638;2024-02-21T02:35:09;57780.09;;;-144.78;68.00
55994;BME280;67425;52.126;20.638;2024-02-21T02:37:34;57792.56;;;-144.78;68.37
55994;BME280;67425;52.126;20.638;2024-02-21T02:39:59;57786.34;;;-144.78;69.27
55994;BME280;67425;52.126;20.638;2024-02-21T02:42:25;57802.94;;;-144.78;69.66
55994;BME280;67425;52.126;20.638;2024-02-21T02:44:50;57790.47;;;-144.78;69.63
55994;BME280;67425;52.126;20.638;2024-02-21T02:47:15;57782.19;;;-144.78;69.69
55994;BME280;67425;52.126;20.638;2024-02-21T02:49:40;57771.78;;;-144.78;69.52
55994;BME280;67425;52.126;20.638;2024-02-21T02:52:06;57792.56;;;-144.78;69.92
55994;BME280;67425;52.126;20.638;2024-02-21T02:54:31;57805.03;;;-144.78;70.25
55994;BME280;67425;52.126;20.638;2024-02-21T02:56:56;57811.25;;;-144.78;69.95
55994;BME280;67425;52.126;20.638;2024-02-21T02:59:21;57809.19;;;-144.78;69.58
55994;BME280;67425;52.126;20.638;2024-02-21T03:01:46;57751.03;;;-144.78;70.24
55994;BME280;67425;52.126;20.638;2024-02-21T03:04:12;57790.47;;;-144.78;70.57
55994;BME280;67425;52.126;20.638;2024-02-21T03:06:37;57763.47;;;-144.78;69.55
55994;BME280;67425;52.126;20.638;2024-02-21T03:09:03;57784.25;;;-144.78;69.53
55994;BME280;67425;52.126;20.638;2024-02-21T03:11:33;57780.09;;;-144.78;69.02
55994;BME280;67425;52.126;20.638;2024-02-21T03:13:58;57784.25;;;-144.78;70.24
55994;BME280;67425;52.126;20.638;2024-02-21T03:16:25;57790.47;;;-144.78;69.81
55994;BME280;67425;52.126;20.638;2024-02-21T03:18:50;57788.41;;;-144.78;70.57
55994;BME280;67425;52.126;20.638;2024-02-21T03:21:15;57811.25;;;-144.78;71.57
55994;BME280;67425;52.126;20.638;2024-02-21T03:23:41;57771.78;;;-144.78;69.89
55994;BME280;67425;52.126;20.638;2024-02-21T03:26:06;57796.72;;;-144.78;69.63
55994;BME280;67425;52.126;20.638;2024-02-21T03:28:32;57757.25;;;-144.78;69.85
55994;BME280;67425;52.126;20.638;2024-02-21T03:30:57;57815.41;;;-144.78;69.33
55994;BME280;67425;52.126;20.638;2024-02-21T03:33:22;57802.94;;;-144.78;69.26
55994;BME280;67425;52.126;20.638;2024-02-21T03:35:48;57813.34;;;-144.78;69.73
55994;BME280;67425;52.126;20.638;2024-02-21T03:38:13;57775.94;;;-144.78;68.65
55994;BME280;67425;52.126;20.638;2024-02-21T03:40:38;57782.19;;;-144.78;68.45
55994;BME280;67425;52.126;20.638;2024-02-21T03:43:04;57788.41;;;-144.78;68.04
55994;BME280;67425;52.126;20.638;2024-02-21T03:45:29;57759.34;;;-144.78;68.09
55994;BME280;67425;52.126;20.638;2024-02-21T03:47:54;57788.41;;;-144.78;67.07
55994;BME280;67425;52.126;20.638;2024-02-21T03:50:19;57757.25;;;-144.78;67.01
55994;BME280;67425;52.126;20.638;2024-02-21T03:52:45;57794.63;;;-144.78;68.14
55994;BME280;67425;52.126;20.638;2024-02-21T03:55:10;57802.94;;;-144.78;69.05
55994;BME280;67425;52.126;20.638;2024-02-21T03:57:35;57767.63;;;-144.78;69.01
55994;BME280;67425;52.126;20.638;2024-02-21T04:00:01;57800.88;;;-144.78;67.94
55994;BME280;67425;52.126;20.638;2024-02-21T04:02:28;57771.78;;;-144.78;67.27
55994;BME280;67425;52.126;20.638;2024-02-21T04:04:53;57790.47;;;-144.78;67.17
55994;BME280;67425;52.126;20.638;2024-02-21T04:07:18;57782.19;;;-144.78;67.63
55994;BME280;67425;52.126;20.638;2024-02-21T04:09:43;57780.09;;;-144.78;68.37
55994;BME280;67425;52.126;20.638;2024-02-21T04:12:09;57807.09;;;-144.78;68.62
55994;BME280;67425;52.126;20.638;2024-02-21T04:14:34;57790.47;;;-144.78;69.82
55994;BME280;67425;52.126;20.638;2024-02-21T04:17:00;57763.47;;;-144.78;69.24
55994;BME280;67425;52.126;20.638;2024-02-21T04:19:25;57794.63;;;-144.78;69.32
55994;BME280;67425;52.126;20.638;2024-02-21T04:21:50;57805.03;;;-144.78;70.25
55994;BME280;67425;52.126;20.638;2024-02-21T04:24:15;57769.72;;;-144.78;70.28
55994;BME280;67425;52.126;20.638;2024-02-21T04:26:41;57796.72;;;-144.78;68.96
55994;BME280;67425;52.126;20.638;2024-02-21T04:29:06;57786.34;;;-144.78;69.18
55994;BME280;67425;52.126;20.638;2024-02-21T04:31:32;57796.72;;;-144.78;69.24
55994;BME280;67425;52.126;20.638;2024-02-21T04:33:57;57794.63;;;-144.78;69.51
55994;BME280;67425;52.126;20.638;2024-02-21T04:36:22;57780.09;;;-144.78;70.36
55994;BME280;67425;52.126;20.638;2024-02-21T04:38:48;57798.78;;;-144.78;70.73
55994;BME280;67425;52.126;20.638;2024-02-21T04:41:15;57805.03;;;-144.78;69.60
55994;BME280;67425;52.126;20.638;2024-02-21T04:43:40;57780.09;;;-144.78;69.19
55994;BME280;67425;52.126;20.638;2024-02-21T04:46:06;57805.03;;;-144.78;70.01
55994;BME280;67425;52.126;20.638;2024-02-21T04:48:31;57784.25;;;-144.78;69.75
55994;BME280;67425;52.126;20.638;2024-02-21T04:50:56;57782.19;;;-144.78;69.77
55994;BME280;67425;52.126;20.638;2024-02-21T04:53:21;57763.47;;;-144.78;68.82
55994;BME280;67425;52.126;20.638;2024-02-21T04:55:47;57757.25;;;-144.78;69.54
55994;BME280;67425;52.126;20.638;2024-02-21T04:58:12;57809.19;;;-144.78;70.62
55994;BME280;67425;52.126;20.638;2024-02-21T05:00:37;57805.03;;;-144.78;72.53
55994;BME280;67425;52.126;20.638;2024-02-21T05:03:03;57802.94;;;-144.78;71.36
55994;BME280;67425;52.126;20.638;2024-02-21T05:05:28;57788.41;;;-144.78;71.70
55994;BME280;67425;52.126;20.638;2024-02-21T05:07:53;57807.09;;;-144.78;71.19
55994;BME280;67425;52.126;20.638;2024-02-21T05:10:18;57775.94;;;-144.78;70.70
55994;BME280;67425;52.126;20.638;2024-02-21T05:12:44;57790.47;;;-144.78;70.84
55994;BME280;67425;52.126;20.638;2024-02-21T05:15:09;57807.09;;;-144.78;70.25
55994;BME280;67425;52.126;20.638;2024-02-21T05:17:35;57784.25;;;-144.78;71.62
55994;BME280;67425;52.126;20.638;2024-02-21T05:20:00;57790.47;;;-144.78;70.49
55994;BME280;67425;52.126;20.638;2024-02-21T05:22:25;57794.63;;;-144.78;72.17
55994;BME280;67425;52.126;20.638;2024-02-21T05:24:50;57811.25;;;-144.78;71.52
55994;BME280;67425;52.126;20.638;2024-02-21T05:27:16;57775.94;;;-144.78;70.56
55994;BME280;67425;52.126;20.638;2024-02-21T05:29:41;57778.03;;;-144.78;70.55
55994;BME280;67425;52.126;20.638;2024-02-21T05:32:06;57771.78;;;-144.78;70.96
55994;BME280;67425;52.126;20.638;2024-02-21T05:34:31;57817.47;;;-144.78;71.13
55994;BME280;67425;52.126;20.638;2024-02-21T05:36:57;57763.47;;;-144.78;70.45
55994;BME280;67425;52.126;20.638;2024-02-21T05:39:24;57778.03;;;-144.78;69.75
55994;BME280;67425;52.126;20.638;2024-02-21T05:41:50;57802.94;;;-144.78;68.99
55994;BME280;67425;52.126;20.638;2024-02-21T05:44:15;57775.94;;;-144.78;69.35
55994;BME280;67425;52.126;20.638;2024-02-21T05:46:41;57775.94;;;-144.78;69.24
55994;BME280;67425;52.126;20.638;2024-02-21T05:49:06;57792.56;;;-144.78;68.62
55994;BME280;67425;52.126;20.638;2024-02-21T05:51:32;57763.47;;;-144.78;67.72
55994;BME280;67425;52.126;20.638;2024-02-21T05:53:58;57798.78;;;-144.78;70.39
55994;BME280;67425;52.126;20.638;2024-02-21T05:56:23;57771.78;;;-144.78;69.33
55994;BME280;67425;52.126;20.638;2024-02-21T05:58:48;57769.72;;;-144.78;69.42
55994;BME280;67425;52.126;20.638;2024-02-21T06:01:13;57788.41;;;-144.78;68.78
55994;BME280;67425;52.126;20.638;2024-02-21T06:03:40;57759.34;;;-144.78;70.58
55994;BME280;67425;52.126;20.638;2024-02-21T06:06:06;57769.72;;;-144.78;69.13
55994;BME280;67425;52.126;20.638;2024-02-21T06:08:31;57775.94;;;-144.78;67.90
55994;BME280;67425;52.126;20.638;2024-02-21T06:10:57;57751.03;;;-144.78;68.14
55994;BME280;67425;52.126;20.638;2024-02-21T06:13:23;57759.34;;;-144.78;69.46
55994;BME280;67425;52.126;20.638;2024-02-21T06:15:49;57769.72;;;-144.78;70.67
55994;BME280;67425;52.126;20.638;2024-02-21T06:18:17;57790.47;;;-144.78;71.03
55994;BME280;67425;52.126;20.638;2024-02-21T06:20:42;57780.09;;;-144.78;69.95
55994;BME280;67425;52.126;20.638;2024-02-21T06:23:08;57782.19;;;-144.78;69.02
55994;BME280;67425;52.126;20.638;2024-02-21T06:25:33;57769.72;;;-144.78;68.87
55994;BME280;67425;52.126;20.638;2024-02-21T06:27:59;57763.47;;;-144.78;67.81
55994;BME280;67425;52.126;20.638;2024-02-21T06:30:24;57761.41;;;-144.78;68.59
55994;BME280;67425;52.126;20.638;2024-02-21T06:32:49;57753.09;;;-144.78;68.40
55994;BME280;67425;52.126;20.638;2024-02-21T06:35:14;57778.03;;;-144.78;68.93
55994;BME280;67425;52.126;20.638;2024-02-21T06:37:40;57784.25;;;-144.78;69.60
55994;BME280;67425;52.126;20.638;2024-02-21T06:40:05;57757.25;;;-144.78;68.99
55994;BME280;67425;52.126;20.638;2024-02-21T06:42:31;57753.09;;;-144.78;69.20
55994;BME280;67425;52.126;20.638;2024-02-21T06:44:56;57767.63;;;-144.78;69.40
55994;BME280;67425;52.126;20.638;2024-02-21T06:47:22;57792.56;;;-144.78;69.11
55994;BME280;67425;52.126;20.638;2024-02-21T06:49:50;57759.34;;;-144.78;68.80
55994;BME280;67425;52.126;20.638;2024-02-21T06:52:19;57771.78;;;-144.78;69.47
55994;BME280;67425;52.126;20.638;2024-02-21T06:54:48;57759.34;;;-144.78;68.75
55994;BME280;67425;52.126;20.638;2024-02-21T06:57:14;57761.41;;;-144.78;69.16
55994;BME280;67425;52.126;20.638;2024-02-21T06:59:40;57790.47;;;-144.78;68.75
55994;BME280;67425;52.126;20.638;2024-02-21T07:02:05;57742.72;;;-144.78;67.95
55994;BME280;67425;52.126;20.638;2024-02-21T07:04:31;57778.03;;;-144.78;68.17
55994;BME280;67425;52.126;20.638;2024-02-21T07:06:56;57780.09;;;-144.78;67.91
55994;BME280;67425;52.126;20.638;2024-02-21T07:09:21;57763.47;;;-144.78;67.49
55994;BME280;67425;52.126;20.638;2024-02-21T07:11:46;57748.94;;;-144.78;68.00
55994;BME280;67425;52.126;20.638;2024-02-21T07:14:13;57755.19;;;-144.78;68.10
55994;BME280;67425;52.126;20.638;2024-02-21T07:16:39;57730.25;;;-144.78;66.94
55994;BME280;67425;52.126;20.638;2024-02-21T07:19:04;57742.72;;;-144.78;67.73
55994;BME280;67425;52.126;20.638;2024-02-21T07:21:29;57778.03;;;-144.78;67.65
55994;BME280;67425;52.126;20.638;2024-02-21T07:23:54;57755.19;;;-144.78;68.06
55994;BME280;67425;52.126;20.638;2024-02-21T07:26:20;57800.88;;;-144.78;67.92
55994;BME280;67425;52.126;20.638;2024-02-21T07:28:45;57780.09;;;-144.78;68.15
55994;BME280;67425;52.126;20.638;2024-02-21T07:31:11;57763.47;;;-144.78;67.48
55994;BME280;67425;52.126;20.638;2024-02-21T07:33:36;57751.03;;;-144.78;67.20
55994;BME280;67425;52.126;20.638;2024-02-21T07:36:05;57751.03;;;-144.78;67.91
55994;BME280;67425;52.126;20.638;2024-02-21T07:38:30;57769.72;;;-144.78;67.62
55994;BME280;67425;52.126;20.638;2024-02-21T07:40:55;57753.09;;;-144.78;68.10
55994;BME280;67425;52.126;20.638;2024-02-21T07:43:21;57761.41;;;-144.78;67.44
55994;BME280;67425;52.126;20.638;2024-02-21T07:45:47;57759.34;;;-144.78;66.42
55994;BME280;67425;52.126;20.638;2024-02-21T07:48:12;57738.56;;;-144.78;67.61
55994;BME280;67425;52.126;20.638;2024-02-21T07:50:37;57794.63;;;-144.78;67.21
55994;BME280;67425;52.126;20.638;2024-02-21T07:53:03;57753.09;;;-144.78;66.53
55994;BME280;67425;52.126;20.638;2024-02-21T07:55:28;57753.09;;;-144.78;66.29
55994;BME280;67425;52.126;20.638;2024-02-21T07:57:53;57751.03;;;-144.78;66.39
55994;BME280;67425;52.126;20.638;2024-02-21T08:00:19;57744.78;;;-144.78;65.88
55994;BME280;67425;52.126;20.638;2024-02-21T08:02:48;57755.19;;;-144.78;66.37
55994;BME280;67425;52.126;20.638;2024-02-21T08:05:13;57744.78;;;-144.78;66.40
55994;BME280;67425;52.126;20.638;2024-02-21T08:07:39;57753.09;;;-144.78;67.63
55994;BME280;67425;52.126;20.638;2024-02-21T08:10:04;57761.41;;;-144.78;67.46
55994;BME280;67425;52.126;20.638;2024-02-21T08:12:32;57728.19;;;-144.78;66.53
55994;BME280;67425;52.126;20.638;2024-02-21T08:14:57;57751.03;;;-144.78;65.80
55994;BME280;67425;52.126;20.638;2024-02-21T08:17:23;57730.25;;;-144.78;65.40
55994;BME280;67425;52.126;20.638;2024-02-21T08:19:48;57767.63;;;-144.78;66.45
55994;BME280;67425;52.126;20.638;2024-02-21T08:22:14;57755.19;;;-144.78;66.27
55994;BME280;67425;52.126;20.638;2024-02-21T08:24:39;57763.47;;;-144.78;66.42
55994;BME280;67425;52.126;20.638;2024-02-21T08:27:04;57763.47;;;-144.78;67.35
55994;BME280;67425;52.126;20.638;2024-02-21T08:29:30;57740.63;;;-144.78;67.01
55994;BME280;67425;52.126;20.638;2024-02-21T08:31:55;57780.09;;;-144.78;67.08
55994;BME280;67425;52.126;20.638;2024-02-21T08:34:20;57742.72;;;-144.78;66.96
55994;BME280;67425;52.126;20.638;2024-02-21T08:36:46;57765.56;;;-144.78;66.56
55994;BME280;67425;52.126;20.638;2024-02-21T08:39:11;57755.19;;;-144.78;66.17
55994;BME280;67425;52.126;20.638;2024-02-21T08:41:40;57730.25;;;-144.78;67.30
55994;BME280;67425;52.126;20.638;2024-02-21T08:44:05;57763.47;;;-144.78;66.42
55994;BME280;67425;52.126;20.638;2024-02-21T08:46:30;57765.56;;;-144.78;68.00
55994;BME280;67425;52.126;20.638;2024-02-21T08:48:55;57721.94;;;-144.78;66.13
55994;BME280;67425;52.126;20.638;2024-02-21T08:51:21;57740.63;;;-144.78;66.75
55994;BME280;67425;52.126;20.638;2024-02-21T08:53:46;57744.78;;;-144.78;66.07
55994;BME280;67425;52.126;20.638;2024-02-21T08:56:12;57757.25;;;-144.78;66.34
55994;BME280;67425;52.126;20.638;2024-02-21T08:58:38;57705.34;;;-144.78;65.85
55994;BME280;67425;52.126;20.638;2024-02-21T09:01:04;57709.50;;;-144.78;67.01
55994;BME280;67425;52.126;20.638;2024-02-21T09:03:33;57757.25;;;-144.78;67.26
55994;BME280;67425;52.126;20.638;2024-02-21T09:05:59;57726.09;;;-144.78;67.21
55994;BME280;67425;52.126;20.638;2024-02-21T09:08:24;57721.94;;;-144.78;65.87
55994;BME280;67425;52.126;20.638;2024-02-21T09:10:50;57736.50;;;-144.78;66.37
55994;BME280;67425;52.126;20.638;2024-02-21T09:13:15;57742.72;;;-144.78;65.83
55994;BME280;67425;52.126;20.638;2024-02-21T09:15:40;57724.03;;;-144.78;66.32
55994;BME280;67425;52.126;20.638;2024-02-21T09:18:05;57707.41;;;-144.78;65.37
55994;BME280;67425;52.126;20.638;2024-02-21T09:20:31;57717.78;;;-144.78;65.77
55994;BME280;67425;52.126;20.638;2024-02-21T09:22:56;57763.47;;;-144.78;66.22
55994;BME280;67425;52.126;20.638;2024-02-21T09:25:22;57724.03;;;-144.78;65.64
55994;BME280;67425;52.126;20.638;2024-02-21T09:27:47;57726.09;;;-144.78;65.21
55994;BME280;67425;52.126;20.638;2024-02-21T09:30:12;57742.72;;;-144.78;65.44
55994;BME280;67425;52.126;20.638;2024-02-21T09:32:38;57730.25;;;-144.78;65.42
55994;BME280;67425;52.126;20.638;2024-02-21T09:35:03;57740.63;;;-144.78;65.83
55994;BME280;67425;52.126;20.638;2024-02-21T09:37:30;57732.34;;;-144.78;65.68
55994;BME280;67425;52.126;20.638;2024-02-21T09:39:55;57740.63;;;-144.78;65.66
55994;BME280;67425;52.126;20.638;2024-02-21T09:42:20;57751.03;;;-144.78;64.92
55994;BME280;67425;52.126;20.638;2024-02-21T09:44:46;57748.94;;;-144.78;65.57
55994;BME280;67425;52.126;20.638;2024-02-21T09:47:16;57767.63;;;-144.78;65.60
55994;BME280;67425;52.126;20.638;2024-02-21T09:49:42;57761.41;;;-144.78;64.80
55994;BME280;67425;52.126;20.638;2024-02-21T09:52:08;57715.72;;;-144.78;64.16
55994;BME280;67425;52.126;20.638;2024-02-21T09:54:34;57734.41;;;-144.78;64.50
55994;BME280;67425;52.126;20.638;2024-02-21T09:56:59;57703.25;;;-144.78;65.01
55994;BME280;67425;52.126;20.638;2024-02-21T09:59:25;57757.25;;;-144.78;65.68
55994;BME280;67425;52.126;20.638;2024-02-21T10:01:52;57738.56;;;-144.78;65.61
55994;BME280;67425;52.126;20.638;2024-02-21T10:04:17;57753.09;;;-144.78;64.99
55994;BME280;67425;52.126;20.638;2024-02-21T10:06:43;57738.56;;;-144.78;64.58
55994;BME280;67425;52.126;20.638;2024-02-21T10:09:09;57697.03;;;-144.78;64.30
55994;BME280;67425;52.126;20.638;2024-02-21T10:11:44;57730.25;;;-144.78;64.68
55994;BME280;67425;52.126;20.638;2024-02-21T10:14:09;57740.63;;;-144.78;64.65
55994;BME280;67425;52.126;20.638;2024-02-21T10:16:35;57738.56;;;-144.78;65.45
55994;BME280;67425;52.126;20.638;2024-02-21T10:19:02;57713.63;;;-144.78;64.55
55994;BME280;67425;52.126;20.638;2024-02-21T10:21:28;57751.03;;;-144.78;65.49
55994;BME280;67425;52.126;20.638;2024-02-21T10:23:54;57751.03;;;-144.78;64.61
55994;BME280;67425;52.126;20.638;2024-02-21T10:26:20;57699.09;;;-144.78;64.76
55994;BME280;67425;52.126;20.638;2024-02-21T10:28:45;57728.19;;;-144.78;65.51
55994;BME280;67425;52.126;20.638;2024-02-21T10:31:22;57709.50;;;-144.78;66.37
55994;BME280;67425;52.126;20.638;2024-02-21T10:33:58;57705.34;;;-144.78;64.55
55994;BME280;67425;52.126;20.638;2024-02-21T10:36:24;57726.09;;;-144.78;64.00
55994;BME280;67425;52.126;20.638;2024-02-21T10:38:52;57721.94;;;-144.78;63.96
55994;BME280;67425;52.126;20.638;2024-02-21T10:41:19;57713.63;;;-144.78;63.76
55994;BME280;67425;52.126;20.638;2024-02-21T10:43:46;57692.88;;;-144.78;63.65
55994;BME280;67425;52.126;20.638;2024-02-21T10:46:14;57730.25;;;-144.78;64.49
55994;BME280;67425;52.126;20.638;2024-02-21T10:48:43;57726.09;;;-144.78;63.88
55994;BME280;67425;52.126;20.638;2024-02-21T10:51:18;57728.19;;;-144.78;64.30
55994;BME280;67425;52.126;20.638;2024-02-21T10:58:44;57721.94;;;-144.78;64.83
55994;BME280;67425;52.126;20.638;2024-02-21T11:01:10;57709.50;;;-144.78;64.50
55994;BME280;67425;52.126;20.638;2024-02-21T11:03:37;57686.63;;;-144.78;64.81
55994;BME280;67425;52.126;20.638;2024-02-21T11:06:03;57711.56;;;-144.78;64.44
55994;BME280;67425;52.126;20.638;2024-02-21T11:08:30;57748.94;;;-144.78;65.46
55994;BME280;67425;52.126;20.638;2024-02-21T11:10:58;57726.09;;;-144.78;64.95
55994;BME280;67425;52.126;20.638;2024-02-21T11:13:31;57744.78;;;-144.78;65.74
55994;BME280;67425;52.126;20.638;2024-02-21T11:18:32;57744.78;;;-144.78;64.56
55994;BME280;67425;52.126;20.638;2024-02-21T11:20:57;57721.94;;;-144.78;65.71
55994;BME280;67425;52.126;20.638;2024-02-21T11:23:26;57713.63;;;-144.78;64.72
55994;BME280;67425;52.126;20.638;2024-02-21T11:25:51;57734.41;;;-144.78;66.40
55994;BME280;67425;52.126;20.638;2024-02-21T11:28:17;57728.19;;;-144.78;65.71
55994;BME280;67425;52.126;20.638;2024-02-21T11:30:50;57748.94;;;-144.78;65.38
55994;BME280;67425;52.126;20.638;2024-02-21T11:33:16;57751.03;;;-144.78;65.62
55994;BME280;67425;52.126;20.638;2024-02-21T11:35:41;57748.94;;;-144.78;65.91
55994;BME280;67425;52.126;20.638;2024-02-21T11:38:10;57734.41;;;-144.78;65.72
55994;BME280;67425;52.126;20.638;2024-02-21T11:40:38;57755.19;;;-144.78;65.88
55994;BME280;67425;52.126;20.638;2024-02-21T11:43:04;57728.19;;;-144.78;66.65
55994;BME280;67425;52.126;20.638;2024-02-21T11:45:29;57705.34;;;-144.78;67.32
55994;BME280;67425;52.126;20.638;2024-02-21T11:47:57;57748.94;;;-144.78;67.29
55994;BME280;67425;52.126;20.638;2024-02-21T11:50:25;57730.25;;;-144.78;67.16
55994;BME280;67425;52.126;20.638;2024-02-21T11:52:50;57726.09;;;-144.78;67.28
55994;BME280;67425;52.126;20.638;2024-02-21T11:55:16;57761.41;;;-144.78;67.13
55994;BME280;67425;52.126;20.638;2024-02-21T11:57:41;57732.34;;;-144.78;66.82
55994;BME280;67425;52.126;20.638;2024-02-21T12:00:17;57711.56;;;-144.78;66.60
55994;BME280;67425;52.126;20.638;2024-02-21T12:02:45;57751.03;;;-144.78;68.23
55994;BME280;67425;52.126;20.638;2024-02-21T12:05:10;57726.09;;;-144.78;68.76
55994;BME280;67425;52.126;20.638;2024-02-21T12:07:36;57765.56;;;-144.78;68.48
55994;BME280;67425;52.126;20.638;2024-02-21T12:10:06;57715.72;;;-144.78;67.62
55994;BME280;67425;52.126;20.638;2024-02-21T12:12:31;57742.72;;;-144.78;68.64
55994;BME280;67425;52.126;20.638;2024-02-21T12:15:01;57736.50;;;-144.78;68.51
55994;BME280;67425;52.126;20.638;2024-02-21T12:17:26;57721.94;;;-144.78;67.92
55994;BME280;67425;52.126;20.638;2024-02-21T12:19:52;57717.78;;;-144.78;67.98
55994;BME280;67425;52.126;20.638;2024-02-21T12:22:20;57757.25;;;-144.78;69.27
55994;BME280;67425;52.126;20.638;2024-02-21T12:24:45;57726.09;;;-144.78;66.88
55994;BME280;67425;52.126;20.638;2024-02-21T12:27:13;57711.56;;;-144.78;67.21
55994;BME280;67425;52.126;20.638;2024-02-21T12:29:38;57721.94;;;-144.78;68.65
55994;BME280;67425;52.126;20.638;2024-02-21T12:32:03;57740.63;;;-144.78;68.10
55994;BME280;67425;52.126;20.638;2024-02-21T12:34:29;57742.72;;;-144.78;68.89